Aérodrome :
LOGIN :

S'inscrire | Disclaimer

   EN    FR    IT 

 










Légende :    VFR   VFR Marginal   IFR   IFR Intensif   IFR Très Intensif
Visi : 
Plafond : 
>= 8 km
>= 3000ft
5 à 8 km
1000 à 3000 ft
1500m à 5 km
500 à 1000 ft
800 à 1500m
200 à 500 ft
< 800m
< 200 ft
Symboles :   Orages  Brouillard  Fortes neiges  Fortes précipitations  Vent > 20 kt
SIGMETs :   Divers  Orages  Givrage  Turbulence  Onde Orograph.  Cendres Volcan.







- Altitude de l'aérodrome : 776 ft
- Code IATA : RMS


ETAR - Ramstein Air Base

DERNIER METAR :
  • 190256Z 03006KT 9999 CLR M02/M05 A3005 RMK AO2A SLP191 57015 $

METARs EXPIRÉS :
  • 190156Z 04006KT 9999 CLR M03/M08 A3007 RMK AO2A SLP198 $
  • 190056Z 04011KT 9999 CLR M01/M08 A3009 RMK AO2A SLP203 $

TAF AMD TAF ETAR
Valide du 19 à 02h jusqu'au 20 à 08h UTC


190249Z 1902/2008 05012KT 9999 BKN030 620307 QNH3004INS
BECMG 1904/1905 05010G15KT 9999 BKN012 BKN060 620128 QNH2999INS
BECMG 1906/1907 05010G15KT 6000 -SN BKN010 OVC020 620109 QNH2992INS
TEMPO 1907/1910 05015G25KT
BECMG 1909/1910 06015G25KT 8000 -SHSN BKN015 OVC040 620159 510004 QNH2985INS
BECMG 1917/1918 07015G20KT 9999 NSW BKN015 OVC050 620159 QNH2980INS
BECMG 1922/1923 07012G20KT 9999 BKN020 OVC030 620208 QNH2977INS TX04/1912Z TNM05/1905Z
Pas de NOTAMs connus pour ce terrain.
1 SIGMET publié pour la FIR Langen (EDGG) :
 
Givrage fort
EDGG SIGMET 1 VALID 190330/190600 EDZF
EDGG LANGEN FIR SEV ICE FCST WI N5121 E01030 - N5041 E01042 - N5015 E01018 - N5015 E00845 - N5120 E00848 - N5121 E01030 1500FT/5000FT MOV W 05KT NC=



MET'MAP, la Météo Aéronautique d'un coup d'oeil ! - Copyright ORBIFLY Décembre 2007 - Disclaimer

ORBIFLY MET'MAP TEAM :

Programmation & Développement : Alexandra Zaïnal
Conception & Développement : Baudouin d'Aumeries
Co-Programmation & Développement : Marc-Olivier Méhu
Soutien technique & logistique : Manuel Goepfert

Contact : metmap@orbifly.com




SOURCES & CREDITS :

   NOAA